Time;durP1;ratioP1;P1;durP2;ratioP2;P2;SDS_P1;SDS_P2;PMS_P1;PMS_P2;Temp;Humidity;BMP_temperature;BMP_pressure;BME280_temperature;BME280_humidity;BME280_pressure;Samples;Min_cycle;Max_cycle;Signal;HPM_P1;HPM_P2
2021/12/29 00:00:41;;;;;;;17.33;11.60;;;27.80;81.80;;;;;;5043742;28;20206;-43
2021/12/29 00:03:08;;;;;;;15.65;11.27;;;27.80;81.90;;;;;;5043534;28;20025;-47
2021/12/29 00:05:35;;;;;;;16.60;12.32;;;27.80;81.80;;;;;;5043749;28;20021;-51
2021/12/29 00:08:02;;;;;;;15.50;11.82;;;27.80;81.90;;;;;;5043746;28;20014;-40
2021/12/29 00:10:29;;;;;;;14.75;10.68;;;27.80;81.90;;;;;;5043479;28;20064;-47
2021/12/29 00:12:56;;;;;;;16.27;9.63;;;27.70;81.80;;;;;;5043532;28;20028;-51
2021/12/29 00:15:26;;;;;;;17.27;9.75;;;27.70;81.30;;;;;;5043356;28;20099;-43
2021/12/29 00:17:53;;;;;;;12.70;9.27;;;27.70;81.50;;;;;;5043322;28;20329;-41
2021/12/29 00:20:24;;;;;;;15.48;11.88;;;27.70;81.20;;;;;;5043627;28;20024;-39
2021/12/29 00:22:51;;;;;;;14.95;11.30;;;27.70;81.50;;;;;;5025978;28;20230;-46
2021/12/29 00:25:17;;;;;;;13.88;10.13;;;27.70;81.90;;;;;;5043630;28;20036;-48
2021/12/29 00:27:44;;;;;;;20.27;12.35;;;27.70;81.70;;;;;;5043608;28;20033;-42
2021/12/29 00:30:12;;;;;;;19.52;14.65;;;27.70;81.60;;;;;;5044713;28;20338;-39
2021/12/29 00:32:39;;;;;;;19.40;13.98;;;27.70;81.70;;;;;;5061318;28;20445;-41
2021/12/29 00:35:08;;;;;;;20.30;13.70;;;27.70;81.80;;;;;;5061994;28;20359;-47
2021/12/29 00:37:35;;;;;;;21.65;12.60;;;27.70;82.20;;;;;;5077072;28;20139;-46
2021/12/29 00:40:02;;;;;;;18.80;11.20;;;27.70;81.60;;;;;;5078206;28;20029;-51
2021/12/29 00:42:29;;;;;;;20.90;11.50;;;27.70;81.50;;;;;;5063219;28;20021;-45
2021/12/29 00:44:55;;;;;;;13.55;9.75;;;27.70;81.40;;;;;;5063155;28;20048;-43
2021/12/29 00:47:22;;;;;;;12.65;10.50;;;27.70;81.30;;;;;;5063454;28;20066;-41
2021/12/29 00:49:48;;;;;;;14.55;11.82;;;27.70;81.20;;;;;;5066632;28;20021;-45
2021/12/29 00:52:15;;;;;;;18.48;11.82;;;27.70;81.10;;;;;;5054727;28;20079;-50
2021/12/29 00:54:44;;;;;;;15.73;10.75;;;27.70;80.90;;;;;;5066411;28;20032;-49
2021/12/29 00:57:11;;;;;;;16.80;11.20;;;27.70;80.80;;;;;;5056734;28;20020;-44
2021/12/29 00:59:38;;;;;;;18.70;11.35;;;27.70;81.00;;;;;;5058970;28;20036;-45
2021/12/29 01:02:06;;;;;;;13.90;10.30;;;27.60;81.20;;;;;;5057424;28;20016;-41
2021/12/29 01:04:33;;;;;;;12.55;9.27;;;27.60;81.40;;;;;;5056263;28;20029;-42
2021/12/29 01:06:59;;;;;;;12.48;8.75;;;27.60;81.10;;;;;;5060172;28;20013;-50
2021/12/29 01:09:26;;;;;;;17.40;9.52;;;27.60;81.00;;;;;;5061596;28;20134;-46
2021/12/29 01:11:56;;;;;;;15.77;9.25;;;27.50;80.80;;;;;;5056017;28;20017;-48
2021/12/29 01:14:25;;;;;;;13.73;8.48;;;27.50;80.90;;;;;;5046856;28;20025;-45
2021/12/29 01:16:52;;;;;;;11.77;8.38;;;27.50;80.90;;;;;;5052117;28;20032;-45
2021/12/29 01:19:25;;;;;;;11.13;7.88;;;27.50;81.00;;;;;;5053268;28;20089;-40
2021/12/29 01:21:55;;;;;;;8.70;7.80;;;27.50;81.00;;;;;;5045325;28;20040;-45
2021/12/29 01:24:22;;;;;;;12.73;7.88;;;27.50;81.10;;;;;;5059847;28;20032;-52
2021/12/29 01:26:50;;;;;;;10.13;7.28;;;27.50;81.20;;;;;;5062557;28;20013;-55
2021/12/29 01:29:17;;;;;;;9.57;7.18;;;27.50;81.00;;;;;;5063968;28;20024;-49
2021/12/29 01:31:44;;;;;;;8.73;7.00;;;27.60;80.90;;;;;;5066423;28;20059;-54
2021/12/29 01:34:12;;;;;;;9.48;6.70;;;27.60;80.80;;;;;;5066602;28;20100;-44
2021/12/29 01:36:40;;;;;;;10.32;6.80;;;27.60;81.30;;;;;;5066039;28;20084;-46
2021/12/29 01:39:11;;;;;;;10.18;6.68;;;27.60;80.80;;;;;;5066042;28;20051;-46
2021/12/29 01:41:38;;;;;;;11.43;6.72;;;27.60;80.80;;;;;;5066156;28;20310;-47
2021/12/29 01:44:06;;;;;;;8.50;7.05;;;27.60;80.70;;;;;;5048425;28;20032;-47
2021/12/29 01:46:33;;;;;;;12.15;7.63;;;27.60;80.70;;;;;;5062461;28;20017;-47
2021/12/29 01:49:00;;;;;;;11.90;7.45;;;27.60;80.70;;;;;;5060137;28;20024;-52
2021/12/29 01:51:26;;;;;;;11.60;7.38;;;27.60;80.70;;;;;;5057965;28;20021;-51
2021/12/29 01:56:57;;;;;;;11.30;8.13;;;27.60;80.80;;;;;;5021670;28;20033;-41
2021/12/29 01:59:26;;;;;;;9.90;7.05;;;27.60;80.70;;;;;;5066115;28;20150;-44
2021/12/29 02:01:53;;;;;;;9.32;6.65;;;27.60;80.70;;;;;;5048302;28;20103;-50
2021/12/29 02:04:20;;;;;;;7.65;6.30;;;27.60;80.70;;;;;;5066005;28;20047;-41
2021/12/29 02:06:48;;;;;;;10.93;6.75;;;27.50;80.70;;;;;;5047881;28;20025;-47
2021/12/29 02:09:14;;;;;;;9.35;6.35;;;27.50;80.60;;;;;;5065759;28;20021;-49
2021/12/29 02:11:42;;;;;;;9.73;6.10;;;27.50;80.60;;;;;;5061765;28;20017;-56
2021/12/29 02:14:09;;;;;;;7.72;6.38;;;27.50;80.60;;;;;;5045615;28;20037;-44
2021/12/29 02:16:36;;;;;;;9.25;6.88;;;27.50;80.60;;;;;;5045328;28;20017;-50
2021/12/29 02:19:09;;;;;;;14.48;7.78;;;27.50;80.50;;;;;;5054442;28;20027;-45
2021/12/29 02:21:37;;;;;;;13.55;8.10;;;27.50;80.60;;;;;;5058190;28;20031;-45
2021/12/29 02:26:38;;;;;;;11.18;6.93;;;27.50;80.60;;;;;;5057714;28;20013;-46
2021/12/29 02:29:14;;;;;;;13.40;7.30;;;27.50;80.60;;;;;;5057225;28;20213;-49
2021/12/29 02:31:41;;;;;;;12.50;7.57;;;27.50;80.60;;;;;;5044959;28;20116;-43
2021/12/29 02:34:10;;;;;;;14.10;7.43;;;27.50;80.70;;;;;;5045183;28;20033;-49
2021/12/29 02:36:43;;;;;;;11.68;7.47;;;27.40;80.70;;;;;;5027452;28;20207;-42
2021/12/29 02:39:12;;;;;;;13.85;7.57;;;27.40;80.70;;;;;;5045189;28;20040;-44
2021/12/29 02:41:43;;;;;;;8.77;7.00;;;27.40;80.70;;;;;;5044945;28;20021;-44
2021/12/29 02:44:15;;;;;;;13.10;6.93;;;27.40;80.80;;;;;;5044574;28;20029;-44
2021/12/29 02:46:43;;;;;;;30.38;8.98;;;27.40;80.80;;;;;;5044988;28;20014;-44
2021/12/29 02:49:10;;;;;;;16.77;7.07;;;27.40;80.90;;;;;;5044646;28;20266;-45
2021/12/29 02:51:36;;;;;;;13.60;7.10;;;27.40;80.90;;;;;;5044901;28;20089;-55
2021/12/29 02:54:04;;;;;;;13.60;7.00;;;27.40;80.90;;;;;;5044931;28;20033;-49
2021/12/29 02:56:31;;;;;;;14.35;6.90;;;27.40;80.90;;;;;;5044634;28;20123;-46
2021/12/29 02:58:59;;;;;;;14.77;6.60;;;27.40;81.00;;;;;;5044845;28;20103;-46
2021/12/29 03:01:27;;;;;;;13.55;6.72;;;27.30;81.00;;;;;;5049184;28;20053;-49
2021/12/29 03:03:56;;;;;;;12.15;6.35;;;27.30;81.50;;;;;;5055697;28;20037;-47
2021/12/29 03:06:23;;;;;;;10.95;6.60;;;27.40;81.00;;;;;;5058409;28;20018;-52
2021/12/29 03:08:50;;;;;;;7.60;6.30;;;27.30;80.90;;;;;;5050786;28;20193;-50
2021/12/29 03:11:16;;;;;;;13.63;5.78;;;27.30;81.00;;;;;;5043957;28;20306;-50
2021/12/29 03:13:44;;;;;;;10.48;6.60;;;27.30;81.00;;;;;;5044771;28;20318;-54
2021/12/29 03:16:11;;;;;;;8.40;6.15;;;27.40;81.10;;;;;;5044385;28;20028;-47
2021/12/29 03:18:38;;;;;;;12.80;6.13;;;27.30;81.00;;;;;;5044117;28;20220;-52
2021/12/29 03:21:05;;;;;;;11.57;6.00;;;27.30;80.90;;;;;;5044414;28;20063;-50
2021/12/29 03:23:31;;;;;;;13.23;6.40;;;27.30;80.80;;;;;;5044354;28;20036;-56
2021/12/29 03:25:58;;;;;;;14.80;6.55;;;27.30;80.60;;;;;;5044466;28;20017;-49
2021/12/29 03:28:25;;;;;;;7.50;5.65;;;27.30;80.60;;;;;;5026889;28;20101;-53
2021/12/29 03:30:55;;;;;;;9.88;5.38;;;27.30;80.50;;;;;;5044532;28;20068;-47
2021/12/29 03:33:28;;;;;;;9.63;5.10;;;27.30;80.30;;;;;;5043767;28;20092;-50
2021/12/29 03:36:04;;;;;;;8.77;5.32;;;27.30;80.30;;;;;;5044102;28;20063;-46
2021/12/29 03:38:36;;;;;;;5.82;4.95;;;27.30;80.20;;;;;;5044285;28;20030;-48
2021/12/29 03:41:06;;;;;;;12.20;5.55;;;27.30;80.30;;;;;;5044166;28;20028;-50
2021/12/29 03:43:34;;;;;;;11.52;5.20;;;27.30;80.20;;;;;;5043955;28;20213;-46
2021/12/29 03:46:03;;;;;;;9.13;4.90;;;27.30;80.30;;;;;;5044018;28;20121;-47
2021/12/29 03:48:30;;;;;;;5.57;4.85;;;27.30;80.30;;;;;;5043904;28;20024;-48
2021/12/29 03:50:58;;;;;;;13.77;5.70;;;27.30;80.30;;;;;;5044154;28;20201;-43
2021/12/29 03:53:25;;;;;;;7.78;5.00;;;27.30;80.30;;;;;;5043927;28;20324;-47
2021/12/29 03:55:52;;;;;;;10.10;5.30;;;27.30;80.40;;;;;;5043941;28;20262;-49
2021/12/29 03:58:21;;;;;;;6.47;5.13;;;27.30;80.40;;;;;;5044028;28;20036;-50
2021/12/29 04:00:50;;;;;;;6.65;4.95;;;27.30;80.50;;;;;;5043825;28;20083;-53
2021/12/29 04:03:17;;;;;;;9.13;5.38;;;27.30;80.50;;;;;;5043446;28;20079;-51
2021/12/29 04:05:44;;;;;;;7.22;4.82;;;27.30;80.50;;;;;;5043840;28;20092;-45
2021/12/29 04:08:11;;;;;;;8.77;5.13;;;27.30;80.60;;;;;;5043842;28;20017;-48
2021/12/29 04:10:37;;;;;;;8.35;5.15;;;27.30;80.60;;;;;;5043767;28;20021;-51
2021/12/29 04:13:04;;;;;;;6.88;5.10;;;27.30;80.60;;;;;;5043751;28;20017;-46
2021/12/29 04:15:31;;;;;;;7.93;5.30;;;27.30;80.60;;;;;;5043431;28;20322;-44
2021/12/29 04:18:02;;;;;;;9.90;5.47;;;27.30;80.70;;;;;;5045974;28;20103;-46
2021/12/29 04:23:17;;;;;;;9.57;4.97;;;27.30;80.70;;;;;;5044409;28;20055;-48
2021/12/29 04:25:48;;;;;;;6.20;5.22;;;27.30;80.70;;;;;;5047662;28;20018;-50
2021/12/29 04:28:20;;;;;;;8.23;4.60;;;27.30;80.60;;;;;;5047501;28;20025;-48
2021/12/29 04:30:48;;;;;;;6.90;4.90;;;27.30;80.60;;;;;;5047424;28;20384;-42
2021/12/29 04:33:16;;;;;;;8.95;5.15;;;27.30;80.70;;;;;;5047181;28;20364;-47
2021/12/29 04:35:44;;;;;;;7.25;5.28;;;27.30;80.80;;;;;;5047423;28;20026;-48
2021/12/29 04:38:11;;;;;;;6.07;4.85;;;27.30;80.90;;;;;;5047454;28;20025;-52
2021/12/29 04:40:38;;;;;;;7.20;5.18;;;27.20;80.90;;;;;;5047356;28;20017;-46
2021/12/29 04:43:05;;;;;;;8.57;5.15;;;27.30;81.00;;;;;;5029478;28;20033;-47
2021/12/29 04:45:32;;;;;;;8.05;4.72;;;27.20;80.90;;;;;;5047161;28;20070;-44
2021/12/29 04:47:59;;;;;;;7.22;4.90;;;27.20;80.90;;;;;;5046760;28;20047;-53
2021/12/29 04:50:37;;;;;;;6.30;4.75;;;27.20;81.00;;;;;;5055765;28;20025;-45
2021/12/29 04:53:05;;;;;;;8.15;5.30;;;27.20;81.00;;;;;;5066307;28;20032;-46
2021/12/29 04:55:32;;;;;;;6.30;4.93;;;27.20;81.00;;;;;;5059418;28;20021;-52
2021/12/29 04:57:59;;;;;;;8.20;4.85;;;27.20;81.20;;;;;;5048451;28;20369;-47
2021/12/29 05:00:30;;;;;;;8.57;5.07;;;27.20;81.20;;;;;;5058428;28;20262;-48
2021/12/29 05:02:58;;;;;;;7.45;5.45;;;27.20;81.40;;;;;;5046427;28;20043;-51
2021/12/29 05:10:45;;;;;;;6.57;5.22;;;27.20;81.60;;;;;;5046809;28;20064;-48
2021/12/29 05:13:12;;;;;;;7.70;5.75;;;27.20;81.80;;;;;;5046598;28;20119;-49
2021/12/29 05:15:38;;;;;;;11.27;6.28;;;27.20;81.80;;;;;;5046604;28;20032;-50
2021/12/29 05:18:05;;;;;;;11.82;5.90;;;27.20;81.90;;;;;;5046260;28;20083;-43
2021/12/29 05:20:32;;;;;;;9.27;5.18;;;27.20;81.90;;;;;;5046535;28;20021;-50
2021/12/29 05:23:00;;;;;;;6.65;5.30;;;27.20;82.00;;;;;;5046202;28;20032;-48
2021/12/29 05:25:28;;;;;;;10.73;5.57;;;27.20;82.10;;;;;;5046676;28;20032;-51
2021/12/29 05:27:56;;;;;;;6.15;5.25;;;27.20;82.20;;;;;;5060008;28;20297;-47
2021/12/29 05:30:23;;;;;;;8.52;5.90;;;27.20;82.30;;;;;;5042241;28;20045;-45
2021/12/29 05:32:50;;;;;;;9.75;6.05;;;27.20;82.30;;;;;;5056467;28;20006;-48
2021/12/29 05:35:17;;;;;;;10.38;5.50;;;27.20;82.40;;;;;;5052764;28;20100;-49
2021/12/29 05:37:45;;;;;;;8.15;5.93;;;27.10;82.40;;;;;;5054384;28;20237;-54
2021/12/29 05:40:15;;;;;;;6.35;5.65;;;27.20;82.60;;;;;;5054762;28;20035;-56
2021/12/29 05:42:43;;;;;;;9.55;6.03;;;27.10;82.80;;;;;;5055724;28;20068;-54
2021/12/29 05:45:13;;;;;;;7.18;5.30;;;27.10;82.90;;;;;;5053909;28;20320;-43
2021/12/29 05:47:40;;;;;;;7.45;5.70;;;27.10;82.90;;;;;;5055140;28;20017;-51
2021/12/29 05:50:10;;;;;;;6.72;6.05;;;27.10;83.00;;;;;;5054506;28;20018;-41
2021/12/29 05:52:37;;;;;;;8.85;6.25;;;27.00;83.00;;;;;;5052771;28;20025;-44
2021/12/29 05:55:05;;;;;;;7.25;5.57;;;27.10;83.20;;;;;;5054691;28;20013;-47
2021/12/29 05:57:32;;;;;;;10.50;6.20;;;27.10;83.30;;;;;;5070070;28;20033;-55
2021/12/29 05:59:59;;;;;;;6.13;5.43;;;27.10;83.40;;;;;;5055338;28;20044;-44
2021/12/29 06:02:26;;;;;;;9.02;5.82;;;27.00;83.30;;;;;;5054220;28;20199;-48
2021/12/29 06:04:52;;;;;;;9.35;6.38;;;27.00;83.50;;;;;;5063187;28;20320;-45
2021/12/29 06:07:19;;;;;;;7.47;5.72;;;27.00;83.60;;;;;;5064601;28;20043;-44
2021/12/29 06:09:46;;;;;;;11.00;6.13;;;27.00;83.80;;;;;;5065057;28;20021;-48
2021/12/29 06:12:12;;;;;;;8.10;5.72;;;27.00;83.80;;;;;;5063997;28;20029;-46
2021/12/29 06:14:39;;;;;;;8.35;5.43;;;27.00;84.30;;;;;;5064785;28;20063;-45
2021/12/29 06:17:05;;;;;;;9.90;5.68;;;27.00;83.90;;;;;;5064457;28;20020;-50
2021/12/29 06:19:33;;;;;;;8.63;5.60;;;26.90;83.90;;;;;;5064755;28;20096;-40
2021/12/29 06:22:00;;;;;;;8.80;5.43;;;27.00;83.90;;;;;;5064270;28;20340;-40
2021/12/29 06:24:27;;;;;;;8.88;5.72;;;26.90;84.00;;;;;;5064299;28;20332;-50
2021/12/29 06:26:54;;;;;;;10.52;5.90;;;26.90;84.00;;;;;;5064419;28;20329;-43
2021/12/29 06:29:20;;;;;;;8.35;5.85;;;26.90;83.90;;;;;;4992190;28;2067362;-56
2021/12/29 06:31:48;;;;;;;12.77;5.68;;;26.90;84.00;;;;;;5065263;28;20385;-44
2021/12/29 06:34:14;;;;;;;8.57;5.30;;;26.90;84.00;;;;;;5065386;28;20048;-49
2021/12/29 06:36:41;;;;;;;6.60;5.32;;;26.90;84.00;;;;;;5064994;28;20078;-49
2021/12/29 06:39:08;;;;;;;9.68;5.78;;;26.90;83.90;;;;;;5065351;28;20024;-43
2021/12/29 06:41:34;;;;;;;7.43;5.38;;;26.90;84.00;;;;;;5065106;28;20336;-45
2021/12/29 06:44:01;;;;;;;10.90;5.85;;;26.90;84.00;;;;;;5064986;28;20078;-45
2021/12/29 06:46:28;;;;;;;7.95;5.78;;;26.80;84.00;;;;;;5064370;28;20062;-52
2021/12/29 06:48:55;;;;;;;7.38;5.38;;;26.90;84.10;;;;;;5065136;28;20032;-47
2021/12/29 06:51:21;;;;;;;10.52;5.88;;;26.80;84.00;;;;;;5064684;28;20376;-40
2021/12/29 06:53:48;;;;;;;10.38;5.90;;;26.90;84.10;;;;;;5030431;28;20214;-39
2021/12/29 06:56:15;;;;;;;9.88;5.57;;;26.80;84.00;;;;;;5064676;28;20052;-40
2021/12/29 06:58:41;;;;;;;7.45;5.63;;;26.80;84.10;;;;;;5064682;28;20328;-40
2021/12/29 07:01:08;;;;;;;11.35;5.95;;;26.80;84.00;;;;;;5064768;28;20068;-46
2021/12/29 07:03:35;;;;;;;8.77;5.35;;;26.80;84.00;;;;;;5064701;28;20025;-51
2021/12/29 07:06:01;;;;;;;8.07;5.30;;;26.80;84.00;;;;;;5064509;28;20029;-45
2021/12/29 07:08:28;;;;;;;9.57;5.50;;;26.80;84.00;;;;;;5064524;28;20055;-47
2021/12/29 07:10:55;;;;;;;8.13;5.90;;;26.80;84.00;;;;;;5064536;28;20284;-51
2021/12/29 07:13:21;;;;;;;8.35;5.70;;;26.80;84.10;;;;;;5064306;28;20043;-43
2021/12/29 07:15:48;;;;;;;10.45;5.65;;;26.80;84.10;;;;;;5064360;28;20052;-48
2021/12/29 07:18:15;;;;;;;7.65;5.30;;;26.80;84.00;;;;;;5064164;28;20070;-51
2021/12/29 07:20:44;;;;;;;11.10;5.82;;;26.80;84.00;;;;;;5064244;28;20218;-51
2021/12/29 07:23:11;;;;;;;8.48;6.03;;;26.80;83.90;;;;;;5064373;28;20021;-49
2021/12/29 07:25:38;;;;;;;7.15;5.25;;;26.70;83.80;;;;;;5064302;28;20029;-50
2021/12/29 07:28:05;;;;;;;8.18;5.53;;;26.70;83.60;;;;;;5064243;28;20021;-50
2021/12/29 07:30:32;;;;;;;7.93;5.38;;;26.70;83.60;;;;;;5064039;28;20048;-53
2021/12/29 07:32:58;;;;;;;8.88;4.85;;;26.70;83.60;;;;;;5064084;28;20067;-51
2021/12/29 07:35:26;;;;;;;8.60;4.85;;;26.70;83.50;;;;;;5064247;28;20032;-41
2021/12/29 07:37:52;;;;;;;8.23;4.78;;;26.70;83.30;;;;;;5064019;28;20021;-50
2021/12/29 07:40:19;;;;;;;7.65;4.43;;;26.70;83.30;;;;;;5063983;28;20268;-49
2021/12/29 07:42:46;;;;;;;8.35;5.05;;;26.70;83.10;;;;;;5063843;28;20012;-49
2021/12/29 07:45:13;;;;;;;7.03;4.45;;;26.70;83.10;;;;;;5064512;28;20035;-47
2021/12/29 07:47:46;;;;;;;8.32;4.32;;;26.70;83.00;;;;;;5063955;28;20272;-43
2021/12/29 07:50:15;;;;;;;6.35;4.32;;;26.70;82.90;;;;;;5064247;28;20028;-48
2021/12/29 07:52:43;;;;;;;7.38;4.45;;;26.70;82.80;;;;;;5063847;28;20040;-48
2021/12/29 07:55:10;;;;;;;7.22;4.55;;;26.70;82.80;;;;;;5064007;28;20312;-41
2021/12/29 07:57:36;;;;;;;6.57;4.22;;;26.70;82.70;;;;;;5063536;28;20028;-44
2021/12/29 08:00:04;;;;;;;6.97;4.35;;;26.70;82.70;;;;;;5064149;28;20016;-45
2021/12/29 08:02:30;;;;;;;5.60;4.32;;;26.70;82.80;;;;;;5063648;28;20024;-46
2021/12/29 08:05:00;;;;;;;7.53;4.43;;;26.70;82.80;;;;;;5063867;28;20147;-47
2021/12/29 08:07:27;;;;;;;8.77;4.22;;;26.70;82.90;;;;;;5063835;28;20210;-49
2021/12/29 08:09:54;;;;;;;7.22;4.22;;;26.70;83.00;;;;;;5063648;28;20028;-48
2021/12/29 08:12:20;;;;;;;9.35;4.70;;;26.70;82.90;;;;;;5063514;28;20032;-45
2021/12/29 08:14:48;;;;;;;8.75;4.25;;;26.70;82.80;;;;;;5063988;28;20017;-45
2021/12/29 08:17:15;;;;;;;10.10;4.13;;;26.70;82.80;;;;;;5063438;28;20248;-48
2021/12/29 08:19:43;;;;;;;9.23;4.53;;;26.70;82.70;;;;;;5063595;28;20056;-47
2021/12/29 08:22:10;;;;;;;8.73;4.50;;;26.70;82.60;;;;;;5063405;28;20131;-47
2021/12/29 08:24:37;;;;;;;9.00;4.25;;;26.60;82.50;;;;;;5063870;28;20103;-44
2021/12/29 08:27:05;;;;;;;6.85;4.00;;;26.70;82.60;;;;;;5063335;28;20305;-47
2021/12/29 08:29:31;;;;;;;7.68;3.80;;;26.70;82.60;;;;;;5063665;28;20028;-54
2021/12/29 08:31:58;;;;;;;5.65;3.95;;;26.70;82.50;;;;;;5063346;28;20132;-47
2021/12/29 08:34:25;;;;;;;9.57;4.10;;;26.60;82.40;;;;;;5063496;28;20033;-49
2021/12/29 08:36:52;;;;;;;6.47;4.00;;;26.70;82.50;;;;;;5063406;28;20025;-41
2021/12/29 08:39:19;;;;;;;10.52;3.95;;;26.70;82.50;;;;;;5063610;28;20013;-55
2021/12/29 08:41:49;;;;;;;8.82;4.00;;;26.70;82.50;;;;;;5063169;28;20036;-59
2021/12/29 08:44:16;;;;;;;6.95;3.90;;;26.70;82.50;;;;;;5063451;28;20263;-49
2021/12/29 08:46:44;;;;;;;8.55;4.13;;;26.70;82.50;;;;;;5063320;28;20075;-43
2021/12/29 08:49:10;;;;;;;6.47;4.28;;;26.60;82.90;;;;;;5063380;28;20013;-40
2021/12/29 08:51:37;;;;;;;5.32;3.75;;;26.70;82.50;;;;;;5063289;28;20032;-49
2021/12/29 08:54:04;;;;;;;7.45;4.10;;;26.70;82.40;;;;;;5063146;28;20083;-46
2021/12/29 08:56:31;;;;;;;5.55;3.70;;;26.60;82.40;;;;;;5063081;28;20052;-44
2021/12/29 08:58:57;;;;;;;6.50;4.10;;;26.70;82.40;;;;;;5063301;28;20028;-45
2021/12/29 09:01:26;;;;;;;6.28;4.22;;;26.60;82.30;;;;;;5063037;28;20088;-50
2021/12/29 09:03:53;;;;;;;6.18;3.95;;;26.60;82.20;;;;;;5063079;28;20301;-43
2021/12/29 09:06:22;;;;;;;8.43;4.13;;;26.60;82.20;;;;;;5062954;28;20048;-51
2021/12/29 09:08:48;;;;;;;6.30;3.70;;;26.60;82.10;;;;;;5063107;28;20017;-49
2021/12/29 09:11:15;;;;;;;6.95;4.00;;;26.60;82.00;;;;;;5066643;28;20368;-43
2021/12/29 09:13:42;;;;;;;5.15;3.65;;;26.60;81.90;;;;;;5067096;28;20063;-43
2021/12/29 09:16:10;;;;;;;6.00;3.40;;;26.60;81.90;;;;;;5066655;28;20217;-53
2021/12/29 09:18:38;;;;;;;7.80;3.42;;;26.60;81.90;;;;;;5066581;28;20021;-52
2021/12/29 09:21:11;;;;;;;6.75;3.75;;;26.60;81.90;;;;;;5066440;28;20032;-41
2021/12/29 09:23:39;;;;;;;7.10;3.88;;;26.60;82.00;;;;;;5066532;28;20092;-48
2021/12/29 09:26:06;;;;;;;7.63;4.10;;;26.60;82.00;;;;;;5066410;28;20051;-48
2021/12/29 09:28:33;;;;;;;8.73;4.28;;;26.60;81.90;;;;;;5066647;28;20017;-47
2021/12/29 09:31:00;;;;;;;9.30;4.07;;;26.60;81.80;;;;;;5066289;28;20045;-45
2021/12/29 09:33:26;;;;;;;8.13;4.15;;;26.60;81.80;;;;;;5066397;28;20097;-43
2021/12/29 09:35:57;;;;;;;6.80;3.83;;;26.60;81.90;;;;;;5066412;28;20052;-44
2021/12/29 09:38:24;;;;;;;7.30;4.20;;;26.60;81.90;;;;;;5066256;28;20309;-42
2021/12/29 09:40:51;;;;;;;6.38;3.80;;;26.60;81.90;;;;;;5066023;28;20032;-40
2021/12/29 09:43:18;;;;;;;6.60;4.00;;;26.60;81.90;;;;;;5066096;28;20147;-46
2021/12/29 09:45:46;;;;;;;6.18;4.10;;;26.60;82.00;;;;;;5066104;28;20025;-47
2021/12/29 09:48:14;;;;;;;8.70;4.57;;;26.60;82.20;;;;;;5065924;28;20016;-45
2021/12/29 09:50:42;;;;;;;13.05;4.25;;;26.60;82.30;;;;;;5065985;28;20337;-50
2021/12/29 09:53:10;;;;;;;9.82;5.00;;;26.60;82.40;;;;;;5066098;28;20268;-52
2021/12/29 09:55:37;;;;;;;7.85;4.15;;;26.60;82.60;;;;;;5065744;28;20317;-44
2021/12/29 09:58:06;;;;;;;6.57;4.20;;;26.60;82.60;;;;;;5065954;28;20021;-47
2021/12/29 10:00:40;;;;;;;9.25;4.63;;;26.60;82.70;;;;;;5065770;28;20024;-49
2021/12/29 10:03:10;;;;;;;7.85;4.50;;;26.60;82.70;;;;;;5065694;28;20033;-45
2021/12/29 10:05:39;;;;;;;7.57;4.10;;;26.60;82.80;;;;;;5048403;28;20017;-43
2021/12/29 10:08:12;;;;;;;12.02;4.68;;;26.50;82.90;;;;;;5065605;28;20193;-49
2021/12/29 10:10:47;;;;;;;9.32;4.40;;;26.50;83.00;;;;;;5065594;28;20028;-48
2021/12/29 10:13:14;;;;;;;14.80;4.70;;;26.50;83.10;;;;;;5065542;28;20225;-48
2021/12/29 10:15:44;;;;;;;8.23;4.43;;;26.50;83.30;;;;;;5065459;28;20091;-47
2021/12/29 10:18:14;;;;;;;8.93;4.30;;;26.50;83.30;;;;;;5065594;28;20396;-50
2021/12/29 10:20:53;;;;;;;8.20;4.65;;;26.50;83.40;;;;;;5064403;28;20258;-53
2021/12/29 10:23:32;;;;;;;8.80;4.93;;;26.50;83.50;;;;;;5065382;28;20058;-46
2021/12/29 10:26:14;;;;;;;9.07;4.18;;;26.50;83.50;;;;;;5065202;28;20017;-44
2021/12/29 10:28:47;;;;;;;11.45;4.93;;;26.50;83.50;;;;;;5065730;28;20372;-46
2021/12/29 10:31:25;;;;;;;7.95;4.65;;;26.50;83.60;;;;;;5064913;28;20041;-44
2021/12/29 10:33:56;;;;;;;7.22;4.40;;;26.50;83.70;;;;;;5065390;28;20033;-42
2021/12/29 10:36:30;;;;;;;6.32;4.80;;;26.50;83.70;;;;;;5065137;28;20097;-48
2021/12/29 10:39:05;;;;;;;8.40;4.43;;;26.40;83.70;;;;;;5065012;28;20039;-45
2021/12/29 10:41:43;;;;;;;10.73;4.75;;;26.50;83.80;;;;;;5065120;28;20021;-47
2021/12/29 10:44:09;;;;;;;9.57;4.35;;;26.50;83.70;;;;;;5065252;28;20032;-46
2021/12/29 10:46:36;;;;;;;9.60;4.38;;;26.40;83.70;;;;;;5064984;28;20017;-51
2021/12/29 10:49:06;;;;;;;10.35;4.90;;;26.50;83.80;;;;;;5065073;28;20297;-43
2021/12/29 10:51:36;;;;;;;6.78;4.40;;;26.40;83.80;;;;;;5064861;28;20021;-46
2021/12/29 10:54:15;;;;;;;7.43;4.25;;;26.50;83.90;;;;;;5065113;28;20135;-50
2021/12/29 10:56:46;;;;;;;8.02;4.28;;;26.40;84.00;;;;;;5064613;28;20033;-47
2021/12/29 10:59:19;;;;;;;13.10;4.60;;;26.40;84.10;;;;;;5064889;28;20028;-49
2021/12/29 11:01:48;;;;;;;9.77;5.10;;;26.40;84.10;;;;;;5064441;28;20021;-51
2021/12/29 11:04:16;;;;;;;13.73;4.75;;;26.40;84.10;;;;;;5064578;28;20146;-51
2021/12/29 11:06:46;;;;;;;11.43;5.30;;;26.40;84.10;;;;;;5064512;28;20016;-48
2021/12/29 11:09:15;;;;;;;13.52;4.90;;;26.40;84.20;;;;;;5064458;28;20025;-44
2021/12/29 11:11:46;;;;;;;10.77;4.97;;;26.40;84.20;;;;;;5064277;28;20016;-47
2021/12/29 11:14:21;;;;;;;8.43;4.80;;;26.40;84.30;;;;;;5064576;28;20052;-49
2021/12/29 11:16:53;;;;;;;8.77;5.10;;;26.40;84.30;;;;;;5064317;28;20029;-42
2021/12/29 11:19:21;;;;;;;10.88;4.70;;;26.40;84.20;;;;;;5064600;28;20033;-45
2021/12/29 11:21:47;;;;;;;7.53;4.75;;;26.40;84.10;;;;;;5064225;28;20013;-49
2021/12/29 11:24:26;;;;;;;13.40;4.80;;;26.40;84.00;;;;;;5063602;28;20033;-48
2021/12/29 11:26:52;;;;;;;9.48;5.10;;;26.40;84.00;;;;;;5064127;28;20021;-52
2021/12/29 11:29:21;;;;;;;8.50;5.15;;;26.40;84.00;;;;;;5064267;28;20048;-48
2021/12/29 11:32:07;;;;;;;12.32;4.80;;;26.40;84.10;;;;;;5063716;28;20267;-50
2021/12/29 11:34:34;;;;;;;15.60;5.10;;;26.40;84.20;;;;;;5064278;28;20244;-50
2021/12/29 11:37:05;;;;;;;10.80;5.65;;;26.40;84.10;;;;;;5064300;28;20305;-50
2021/12/29 11:39:34;;;;;;;11.77;5.15;;;26.40;84.10;;;;;;5064341;28;20032;-45
2021/12/29 11:42:02;;;;;;;13.45;5.38;;;26.40;84.10;;;;;;5063975;28;20013;-51
2021/12/29 11:44:28;;;;;;;14.45;5.63;;;26.40;84.20;;;;;;5064284;28;20036;-44
2021/12/29 11:46:56;;;;;;;12.55;5.63;;;26.40;84.30;;;;;;5064035;28;20017;-43
2021/12/29 11:49:23;;;;;;;13.63;6.40;;;26.40;84.40;;;;;;5064283;28;20183;-47
2021/12/29 11:52:01;;;;;;;14.35;6.10;;;26.40;84.50;;;;;;5063895;28;20056;-49
2021/12/29 11:54:45;;;;;;;15.88;6.32;;;26.40;84.70;;;;;;5063974;28;20210;-49
2021/12/29 11:57:16;;;;;;;11.88;6.32;;;26.40;84.80;;;;;;5063829;28;20332;-43
2021/12/29 11:59:42;;;;;;;10.10;6.00;;;26.40;84.80;;;;;;5064083;28;20293;-46
2021/12/29 12:02:09;;;;;;;12.77;5.85;;;26.40;84.80;;;;;;5063718;28;20340;-47
2021/12/29 12:04:36;;;;;;;14.18;5.75;;;26.40;84.80;;;;;;5062749;28;20072;-47
2021/12/29 12:07:10;;;;;;;9.60;5.47;;;26.40;84.70;;;;;;5062951;28;20016;-50
2021/12/29 12:09:50;;;;;;;13.57;5.90;;;26.40;84.60;;;;;;5063590;28;20086;-42
2021/12/29 12:12:17;;;;;;;9.45;5.47;;;26.40;84.40;;;;;;5063410;28;20239;-46
2021/12/29 12:14:48;;;;;;;12.05;5.70;;;26.50;84.30;;;;;;5063960;28;20035;-48
2021/12/29 12:17:33;;;;;;;10.07;5.72;;;26.50;84.50;;;;;;5063531;28;20021;-45
2021/12/29 12:20:08;;;;;;;10.98;5.55;;;26.40;84.50;;;;;;5063965;28;20033;-49
2021/12/29 12:23:00;;;;;;;10.15;5.47;;;26.40;84.40;;;;;;5063618;28;20058;-49
2021/12/29 12:25:30;;;;;;;12.32;5.28;;;26.40;84.50;;;;;;5060910;28;20091;-54
2021/12/29 12:28:02;;;;;;;9.27;5.45;;;26.40;84.60;;;;;;5063411;28;20302;-52
2021/12/29 12:30:41;;;;;;;15.43;6.53;;;26.50;84.60;;;;;;5063246;28;20061;-51
2021/12/29 12:33:23;;;;;;;9.27;5.57;;;26.50;84.70;;;;;;5063269;28;20056;-46
2021/12/29 12:35:51;;;;;;;8.70;6.07;;;26.50;84.70;;;;;;5063343;28;20340;-47
2021/12/29 12:38:22;;;;;;;11.93;5.82;;;26.50;84.70;;;;;;5063397;28;20301;-43
2021/12/29 12:41:12;;;;;;;12.10;6.00;;;26.50;84.80;;;;;;5063082;28;20029;-43
2021/12/29 12:43:53;;;;;;;11.45;6.00;;;26.50;85.00;;;;;;5063322;28;20045;-44
2021/12/29 12:46:29;;;;;;;17.47;6.07;;;26.50;85.00;;;;;;5066653;28;20044;-45
2021/12/29 12:48:56;;;;;;;13.00;6.03;;;26.50;84.90;;;;;;5067422;28;20217;-45
2021/12/29 12:51:22;;;;;;;14.13;6.35;;;26.50;84.90;;;;;;5066941;28;20021;-48
2021/12/29 12:53:49;;;;;;;10.80;6.90;;;26.50;85.00;;;;;;5067176;28;20025;-43
2021/12/29 12:56:25;;;;;;;12.68;6.38;;;26.60;85.10;;;;;;5065877;28;20040;-47
2021/12/29 12:58:56;;;;;;;10.88;6.30;;;26.50;84.90;;;;;;5066976;28;20102;-45
2021/12/29 13:01:25;;;;;;;11.30;6.68;;;26.50;84.90;;;;;;5066926;28;20020;-41